createdAt,value
2023-03-29T00:00:09.573Z,18.60
2023-03-29T00:02:41.279Z,18.50
2023-03-29T00:05:10.533Z,18.50
2023-03-29T00:07:38.348Z,18.40
2023-03-29T00:10:07.471Z,18.40
2023-03-29T00:12:35.451Z,18.30
2023-03-29T00:15:04.030Z,18.30
2023-03-29T00:17:32.179Z,18.30
2023-03-29T00:20:01.369Z,18.30
2023-03-29T00:22:29.162Z,18.40
2023-03-29T00:24:56.951Z,18.20
2023-03-29T00:27:24.801Z,18.10
2023-03-29T00:29:52.627Z,18.10
2023-03-29T00:32:20.583Z,18.10
2023-03-29T00:34:50.626Z,18.00
2023-03-29T00:37:20.268Z,18.00
2023-03-29T00:39:48.204Z,18.00
2023-03-29T00:42:17.804Z,18.10
2023-03-29T00:45:02.667Z,18.10
2023-03-29T00:47:36.032Z,18.10
2023-03-29T00:50:09.402Z,18.00
2023-03-29T00:52:40.026Z,18.00
2023-03-29T00:55:13.157Z,18.00
2023-03-29T00:57:43.202Z,18.10
2023-03-29T01:00:14.458Z,18.00
2023-03-29T01:02:44.448Z,18.00
2023-03-29T01:05:17.438Z,18.00
2023-03-29T01:07:53.631Z,17.90
2023-03-29T01:10:24.448Z,18.10
2023-03-29T01:12:57.290Z,18.10
2023-03-29T01:15:28.101Z,18.00
2023-03-29T01:17:58.247Z,18.00
2023-03-29T01:20:35.364Z,17.90
2023-03-29T01:23:22.243Z,18.00
2023-03-29T01:25:58.517Z,18.00
2023-03-29T01:28:32.083Z,18.00
2023-03-29T01:31:08.238Z,18.00
2023-03-29T01:33:41.458Z,18.10
2023-03-29T01:36:18.986Z,18.00
2023-03-29T01:38:54.383Z,18.10
2023-03-29T01:41:23.496Z,18.00
2023-03-29T01:44:00.010Z,18.10
2023-03-29T01:46:32.888Z,18.00
2023-03-29T01:49:05.151Z,17.80
2023-03-29T01:51:38.060Z,17.80
2023-03-29T01:54:11.312Z,17.80
2023-03-29T01:56:43.429Z,17.80
2023-03-29T01:59:15.983Z,17.80
2023-03-29T02:01:50.224Z,17.80
2023-03-29T02:04:26.443Z,17.80
2023-03-29T02:06:57.044Z,17.80
2023-03-29T02:09:25.104Z,17.70
2023-03-29T02:11:54.351Z,17.80
2023-03-29T02:14:24.646Z,17.90
2023-03-29T02:16:52.697Z,17.90
2023-03-29T02:19:21.706Z,17.90
2023-03-29T02:21:56.338Z,17.80
2023-03-29T02:24:27.222Z,17.90
2023-03-29T02:26:55.173Z,18.00
2023-03-29T02:29:24.348Z,18.00
2023-03-29T02:31:56.553Z,17.90
2023-03-29T02:34:29.730Z,18.00
2023-03-29T02:37:00.974Z,17.90
2023-03-29T02:39:31.610Z,17.80
2023-03-29T02:42:00.458Z,17.90
2023-03-29T02:44:33.929Z,18.00
2023-03-29T02:47:06.773Z,18.00
2023-03-29T02:49:35.327Z,17.90
2023-03-29T02:52:09.716Z,18.00
2023-03-29T02:54:43.365Z,18.00
2023-03-29T02:57:12.232Z,18.00
2023-03-29T02:59:43.754Z,17.90
2023-03-29T03:02:13.542Z,17.90
2023-03-29T03:04:41.490Z,18.00
2023-03-29T03:07:09.299Z,18.00
2023-03-29T03:09:37.283Z,17.90
2023-03-29T03:12:05.398Z,18.00
2023-03-29T03:14:33.261Z,17.90
2023-03-29T03:17:04.938Z,17.90
2023-03-29T03:19:33.716Z,17.90
2023-03-29T03:22:01.549Z,18.00
2023-03-29T03:24:29.359Z,18.00
2023-03-29T03:26:58.005Z,18.00
2023-03-29T03:29:26.126Z,18.00
2023-03-29T03:32:13.444Z,18.00
2023-03-29T03:35:02.471Z,18.00
2023-03-29T03:37:30.306Z,17.90
2023-03-29T03:39:58.151Z,18.00
2023-03-29T03:42:28.748Z,18.00
2023-03-29T03:44:58.039Z,17.90
2023-03-29T03:47:53.326Z,17.90
2023-03-29T03:50:26.884Z,17.90
2023-03-29T03:52:54.782Z,18.00
2023-03-29T03:55:23.833Z,18.10
2023-03-29T03:58:11.974Z,17.80
2023-03-29T04:00:40.308Z,18.00
2023-03-29T04:03:29.854Z,18.10
2023-03-29T04:06:01.314Z,17.90
2023-03-29T04:08:35.901Z,18.00
2023-03-29T04:11:15.209Z,17.90
2023-03-29T04:13:43.606Z,18.00
2023-03-29T04:16:37.798Z,17.90
2023-03-29T04:19:26.970Z,18.00
2023-03-29T04:21:55.207Z,18.00
2023-03-29T04:24:24.972Z,18.00
2023-03-29T04:27:12.768Z,18.00
2023-03-29T04:29:40.867Z,17.80
2023-03-29T04:32:19.243Z,17.80
2023-03-29T04:35:05.883Z,17.90
2023-03-29T04:37:34.223Z,17.90
2023-03-29T04:40:04.638Z,17.90
2023-03-29T04:42:44.280Z,18.20
2023-03-29T04:45:13.809Z,18.10
2023-03-29T04:48:00.500Z,18.00
2023-03-29T04:50:29.793Z,18.00
2023-03-29T04:53:00.151Z,18.10
2023-03-29T04:55:29.363Z,18.20
2023-03-29T04:58:04.820Z,18.10
2023-03-29T05:00:36.579Z,18.40
2023-03-29T05:03:04.683Z,18.30
2023-03-29T05:05:37.444Z,18.50
2023-03-29T05:08:05.643Z,18.40
2023-03-29T05:10:59.248Z,18.40
2023-03-29T05:13:28.882Z,18.50
2023-03-29T05:15:57.246Z,18.50
2023-03-29T05:18:26.166Z,18.60
2023-03-29T05:20:55.430Z,18.70
2023-03-29T05:23:23.834Z,18.70
2023-03-29T05:26:10.341Z,18.70
2023-03-29T05:28:40.500Z,18.00
2023-03-29T05:31:10.069Z,17.80
2023-03-29T05:33:40.537Z,17.90
2023-03-29T05:36:13.393Z,17.80
2023-03-29T05:38:46.521Z,17.70
2023-03-29T05:41:16.379Z,17.60
2023-03-29T05:44:16.813Z,17.20
2023-03-29T05:46:47.144Z,17.50
2023-03-29T05:49:17.729Z,17.10
2023-03-29T05:52:09.804Z,17.40
2023-03-29T05:54:39.061Z,17.60
2023-03-29T05:57:08.317Z,17.50
2023-03-29T05:59:36.897Z,17.50
2023-03-29T06:02:04.941Z,17.40
2023-03-29T06:04:34.316Z,17.50
2023-03-29T06:07:23.272Z,17.60
2023-03-29T06:10:11.979Z,17.50
2023-03-29T06:12:43.014Z,17.00
2023-03-29T06:15:13.212Z,17.30
2023-03-29T06:17:53.264Z,17.40
2023-03-29T06:20:21.442Z,17.10
2023-03-29T06:22:55.586Z,17.40
2023-03-29T06:25:24.914Z,17.20
2023-03-29T06:27:52.985Z,17.10
2023-03-29T06:30:22.784Z,17.10
2023-03-29T06:32:54.551Z,17.20
2023-03-29T06:35:36.128Z,17.20
2023-03-29T06:38:09.277Z,17.20
2023-03-29T06:41:03.966Z,17.40
2023-03-29T06:43:43.958Z,17.50
2023-03-29T06:46:16.943Z,17.30
2023-03-29T06:49:05.211Z,17.40
2023-03-29T06:51:40.070Z,17.40
2023-03-29T06:54:09.279Z,17.60
2023-03-29T06:56:40.893Z,17.60
2023-03-29T06:59:14.332Z,17.10
2023-03-29T07:01:49.748Z,16.80
2023-03-29T07:04:24.837Z,16.70
2023-03-29T07:07:19.675Z,16.20
2023-03-29T07:09:55.475Z,16.20
2023-03-29T07:12:29.312Z,16.60
2023-03-29T07:15:00.687Z,16.70
2023-03-29T07:17:49.012Z,17.20
2023-03-29T07:20:17.484Z,17.00
2023-03-29T07:22:48.926Z,16.90
2023-03-29T07:25:19.298Z,17.00
2023-03-29T07:27:47.406Z,16.90
2023-03-29T07:30:17.785Z,16.90
2023-03-29T07:32:46.757Z,16.90
2023-03-29T07:35:36.135Z,16.90
2023-03-29T07:38:04.117Z,16.70
2023-03-29T07:40:34.110Z,16.80
2023-03-29T07:43:20.423Z,16.90
2023-03-29T07:45:48.656Z,16.90
2023-03-29T07:48:17.671Z,16.80
2023-03-29T07:50:50.644Z,16.90
2023-03-29T07:53:21.726Z,17.00
2023-03-29T07:55:54.246Z,16.60
2023-03-29T07:58:43.522Z,16.50
2023-03-29T08:01:17.999Z,16.60
2023-03-29T08:04:12.219Z,16.50
2023-03-29T08:06:58.691Z,16.60
2023-03-29T08:09:37.463Z,16.70
2023-03-29T08:12:07.492Z,16.90
2023-03-29T08:14:38.424Z,16.80
2023-03-29T08:17:20.230Z,16.80
2023-03-29T08:19:50.835Z,16.90
2023-03-29T08:22:22.027Z,17.00
2023-03-29T08:25:10.336Z,17.00
2023-03-29T08:27:45.859Z,16.90
2023-03-29T08:30:19.087Z,17.10
2023-03-29T08:32:49.942Z,17.00
2023-03-29T08:35:20.028Z,17.00
2023-03-29T08:38:00.018Z,17.00
2023-03-29T08:40:29.923Z,17.00
2023-03-29T08:43:47.698Z,17.00
2023-03-29T08:46:35.543Z,17.00
2023-03-29T08:49:41.481Z,17.10
2023-03-29T08:52:21.710Z,17.10
2023-03-29T08:54:53.684Z,17.20
2023-03-29T08:58:02.487Z,17.50
2023-03-29T09:00:38.296Z,17.70
2023-03-29T09:03:12.013Z,17.80
2023-03-29T09:05:45.409Z,17.60
2023-03-29T09:08:21.892Z,17.50
2023-03-29T09:11:08.327Z,17.80
2023-03-29T09:13:47.522Z,17.90
2023-03-29T09:16:23.514Z,18.00
2023-03-29T09:19:03.080Z,17.60
2023-03-29T09:21:39.792Z,17.30
2023-03-29T09:24:25.278Z,17.10
2023-03-29T09:27:08.461Z,17.40
2023-03-29T09:29:52.923Z,17.40
2023-03-29T09:32:32.988Z,17.30
2023-03-29T09:35:18.120Z,17.20
2023-03-29T09:37:49.787Z,17.00
2023-03-29T09:40:21.491Z,16.00
2023-03-29T09:43:00.854Z,15.50
2023-03-29T09:45:29.096Z,15.40
2023-03-29T09:48:02.179Z,15.50
2023-03-29T09:50:35.828Z,15.20
2023-03-29T09:53:06.891Z,15.80
2023-03-29T09:55:40.672Z,16.70
2023-03-29T09:58:25.530Z,17.00
2023-03-29T10:00:57.976Z,17.40
2023-03-29T10:03:29.453Z,17.60
2023-03-29T10:06:08.482Z,18.00
2023-03-29T10:08:40.629Z,18.10
2023-03-29T10:11:13.865Z,18.10
2023-03-29T10:13:47.246Z,17.90
2023-03-29T10:16:21.161Z,17.90
2023-03-29T10:18:51.124Z,18.10
2023-03-29T10:21:20.816Z,18.10
2023-03-29T10:23:49.967Z,18.10
2023-03-29T10:26:28.914Z,18.20
2023-03-29T10:29:00.293Z,18.30
2023-03-29T10:31:31.118Z,18.20
2023-03-29T10:34:04.744Z,18.20
2023-03-29T10:36:32.733Z,18.10
2023-03-29T10:39:05.578Z,18.10
2023-03-29T10:41:35.597Z,18.10
2023-03-29T10:44:05.083Z,18.10
2023-03-29T10:46:36.191Z,17.60
2023-03-29T10:49:15.558Z,17.50
2023-03-29T10:51:46.130Z,17.30
2023-03-29T10:54:17.516Z,17.30
2023-03-29T10:56:52.380Z,17.70
2023-03-29T10:59:28.277Z,18.00
2023-03-29T11:02:19.013Z,18.10
2023-03-29T11:04:52.352Z,18.20
2023-03-29T11:07:29.452Z,18.30
2023-03-29T11:10:06.712Z,18.30
2023-03-29T11:12:43.919Z,18.40
2023-03-29T11:15:37.494Z,18.50
2023-03-29T11:18:27.644Z,18.30
2023-03-29T11:21:03.193Z,18.00
2023-03-29T11:23:44.517Z,18.10
2023-03-29T11:26:18.930Z,18.00
2023-03-29T11:28:53.128Z,18.10
2023-03-29T11:31:34.482Z,18.00
2023-03-29T11:34:16.312Z,18.30
2023-03-29T11:36:52.626Z,18.20
2023-03-29T11:39:31.255Z,18.30
2023-03-29T11:42:05.472Z,18.30
2023-03-29T11:44:35.196Z,18.50
2023-03-29T11:47:08.886Z,18.40
2023-03-29T11:49:41.658Z,18.20
2023-03-29T11:52:14.720Z,18.20
2023-03-29T11:54:48.038Z,18.10
2023-03-29T11:57:22.841Z,18.40
2023-03-29T11:59:57.811Z,18.70
2023-03-29T12:02:32.901Z,18.70
2023-03-29T12:05:06.229Z,18.80
2023-03-29T12:07:40.896Z,18.70
2023-03-29T12:10:16.020Z,18.80
2023-03-29T12:12:47.320Z,18.90
2023-03-29T12:15:20.243Z,18.70
2023-03-29T12:17:52.435Z,18.80
2023-03-29T12:20:26.814Z,18.80
2023-03-29T12:22:56.865Z,18.90
2023-03-29T12:25:28.979Z,18.70
2023-03-29T12:28:15.676Z,18.60
2023-03-29T12:30:55.548Z,18.50
2023-03-29T12:33:54.643Z,18.50
2023-03-29T12:37:07.358Z,18.60
2023-03-29T12:39:49.637Z,18.60
2023-03-29T12:42:53.800Z,18.60
2023-03-29T12:45:43.361Z,18.70
2023-03-29T12:48:17.282Z,18.80
2023-03-29T12:50:49.960Z,18.70
2023-03-29T12:53:22.529Z,18.50
2023-03-29T12:55:57.574Z,18.50
2023-03-29T12:58:42.627Z,18.60
2023-03-29T13:01:22.483Z,18.50
2023-03-29T13:03:52.759Z,18.40
2023-03-29T13:06:31.079Z,18.20
2023-03-29T13:09:01.991Z,18.10
2023-03-29T13:11:34.735Z,18.00
2023-03-29T13:14:06.697Z,18.40
2023-03-29T13:16:35.823Z,18.60
2023-03-29T13:19:19.309Z,18.60
2023-03-29T13:22:00.972Z,18.60
2023-03-29T13:24:40.887Z,18.90
2023-03-29T13:27:18.744Z,19.00
2023-03-29T13:30:03.069Z,19.00
2023-03-29T13:32:44.281Z,19.00
2023-03-29T13:35:21.528Z,18.90
2023-03-29T13:37:58.865Z,18.90
2023-03-29T13:40:34.333Z,18.90
2023-03-29T13:43:11.087Z,18.60
2023-03-29T13:45:40.443Z,18.50
2023-03-29T13:48:23.522Z,18.70
2023-03-29T13:50:56.937Z,18.70
2023-03-29T13:53:29.938Z,18.80
2023-03-29T13:55:59.248Z,18.80
2023-03-29T13:58:36.349Z,18.80
2023-03-29T14:01:11.608Z,18.80
2023-03-29T14:03:45.616Z,18.90
2023-03-29T14:06:16.730Z,18.90
2023-03-29T14:08:45.649Z,19.00
2023-03-29T14:11:24.080Z,19.10
2023-03-29T14:13:55.590Z,19.20
2023-03-29T14:16:24.170Z,19.00
2023-03-29T14:18:52.760Z,18.90
2023-03-29T14:21:21.535Z,18.60
2023-03-29T14:23:56.118Z,18.60
2023-03-29T14:26:25.600Z,18.50
2023-03-29T14:28:57.205Z,18.40
2023-03-29T14:31:28.563Z,18.40
2023-03-29T14:33:57.853Z,18.40
2023-03-29T14:36:27.786Z,18.50
2023-03-29T14:39:00.039Z,18.30
2023-03-29T14:41:31.580Z,18.40
2023-03-29T14:44:02.883Z,18.40
2023-03-29T14:46:33.690Z,18.30
2023-03-29T14:49:03.006Z,18.40
2023-03-29T14:51:31.976Z,18.50
2023-03-29T14:54:01.414Z,18.40
2023-03-29T14:56:29.912Z,18.40
2023-03-29T14:59:00.411Z,18.60
2023-03-29T15:01:28.658Z,18.70
2023-03-29T15:04:02.475Z,18.90
2023-03-29T15:06:31.973Z,19.00
2023-03-29T15:09:06.106Z,19.00
2023-03-29T15:11:35.793Z,19.10
2023-03-29T15:14:08.431Z,19.20
2023-03-29T15:16:40.194Z,19.10
2023-03-29T15:19:08.304Z,19.00
2023-03-29T15:21:36.626Z,19.00
2023-03-29T15:24:05.771Z,18.90
2023-03-29T15:26:35.766Z,18.80
2023-03-29T15:29:08.492Z,18.90
2023-03-29T15:31:38.613Z,18.90
2023-03-29T15:34:09.481Z,18.70
2023-03-29T15:36:41.995Z,18.60
2023-03-29T15:39:12.957Z,19.10
2023-03-29T15:41:40.981Z,19.20
2023-03-29T15:44:10.759Z,18.80
2023-03-29T15:46:38.774Z,19.00
2023-03-29T15:49:07.207Z,19.10
2023-03-29T15:51:35.089Z,19.40
2023-03-29T15:54:02.927Z,19.40
2023-03-29T15:56:33.436Z,19.50
2023-03-29T15:59:01.563Z,19.60
2023-03-29T16:01:35.130Z,19.70
2023-03-29T16:04:03.545Z,19.70
2023-03-29T16:06:31.988Z,19.60
2023-03-29T16:08:59.846Z,19.70
2023-03-29T16:11:28.186Z,19.80
2023-03-29T16:13:56.770Z,19.80
2023-03-29T16:16:24.832Z,19.60
2023-03-29T16:18:54.065Z,19.60
2023-03-29T16:21:23.157Z,19.20
2023-03-29T16:23:51.635Z,19.00
2023-03-29T16:26:19.480Z,19.00
2023-03-29T16:28:47.298Z,19.20
2023-03-29T16:31:15.600Z,19.30
2023-03-29T16:33:43.524Z,19.40
2023-03-29T16:36:13.094Z,19.50
2023-03-29T16:38:41.479Z,19.50
2023-03-29T16:41:12.198Z,19.50
2023-03-29T16:43:40.296Z,19.60
2023-03-29T16:46:09.425Z,19.70
2023-03-29T16:48:37.586Z,19.70
2023-03-29T16:51:06.785Z,19.80
2023-03-29T16:53:36.306Z,19.60
2023-03-29T16:56:04.604Z,19.70
2023-03-29T16:58:32.647Z,19.70
2023-03-29T17:01:09.556Z,19.80
2023-03-29T17:03:37.548Z,19.70
2023-03-29T17:06:06.732Z,19.60
2023-03-29T17:08:36.750Z,19.70
2023-03-29T17:11:06.155Z,19.60
2023-03-29T17:13:34.306Z,19.30
2023-03-29T17:16:02.537Z,19.10
2023-03-29T17:18:30.797Z,19.30
2023-03-29T17:20:59.687Z,19.50
2023-03-29T17:23:27.674Z,19.60
2023-03-29T17:25:57.602Z,19.70
2023-03-29T17:28:25.675Z,19.70
2023-03-29T17:30:53.644Z,19.70
2023-03-29T17:33:22.864Z,19.70
2023-03-29T17:35:51.325Z,19.70
2023-03-29T17:38:19.334Z,19.70
2023-03-29T17:40:53.098Z,19.70
2023-03-29T17:43:22.539Z,19.60
2023-03-29T17:45:51.988Z,19.50
2023-03-29T17:48:20.298Z,19.50
2023-03-29T17:50:48.307Z,19.50
2023-03-29T17:53:16.096Z,19.50
2023-03-29T17:55:43.905Z,19.50
2023-03-29T17:58:11.747Z,19.60
2023-03-29T18:00:41.259Z,19.60
2023-03-29T18:03:09.310Z,19.50
2023-03-29T18:05:37.306Z,19.50
2023-03-29T18:08:05.310Z,19.40
2023-03-29T18:10:33.349Z,19.50
2023-03-29T18:13:01.515Z,19.50
2023-03-29T18:15:29.365Z,19.50
2023-03-29T18:17:58.561Z,19.40
2023-03-29T18:20:26.448Z,19.30
2023-03-29T18:22:54.308Z,19.10
2023-03-29T18:25:22.410Z,19.20
2023-03-29T18:27:50.199Z,19.30
2023-03-29T18:30:18.173Z,19.40
2023-03-29T18:32:46.218Z,19.50
2023-03-29T18:35:15.492Z,19.50
2023-03-29T18:37:43.422Z,19.50
2023-03-29T18:40:11.635Z,19.50
2023-03-29T18:42:39.489Z,19.60
2023-03-29T18:45:09.243Z,19.50
2023-03-29T18:47:37.099Z,19.50
2023-03-29T18:50:05.628Z,19.40
2023-03-29T18:52:34.809Z,19.30
2023-03-29T18:55:02.826Z,19.30
2023-03-29T18:57:30.754Z,19.40
2023-03-29T18:59:58.676Z,19.30
2023-03-29T19:02:26.683Z,19.40
2023-03-29T19:04:54.565Z,19.30
2023-03-29T19:07:22.523Z,19.30
2023-03-29T19:09:51.705Z,19.40
2023-03-29T19:12:19.591Z,19.30
2023-03-29T19:14:47.608Z,19.30
2023-03-29T19:17:15.512Z,19.30
2023-03-29T19:19:43.404Z,19.30
2023-03-29T19:22:11.233Z,19.30
2023-03-29T19:24:39.124Z,19.40
2023-03-29T19:27:09.636Z,19.40
2023-03-29T19:29:39.609Z,19.30
2023-03-29T19:32:07.429Z,19.40
2023-03-29T19:34:35.416Z,19.40
2023-03-29T19:37:03.297Z,19.30
2023-03-29T19:39:31.240Z,19.20
2023-03-29T19:41:59.086Z,19.20
2023-03-29T19:44:28.990Z,19.20
2023-03-29T19:46:56.855Z,19.20
2023-03-29T19:49:24.806Z,19.30
2023-03-29T19:51:54.440Z,19.30
2023-03-29T19:54:23.372Z,19.30
2023-03-29T19:56:52.589Z,19.20
2023-03-29T19:59:20.721Z,19.20
2023-03-29T20:01:51.672Z,19.30
2023-03-29T20:04:20.004Z,19.20
2023-03-29T20:06:48.176Z,19.30
2023-03-29T20:09:16.650Z,19.30
2023-03-29T20:11:44.804Z,19.30
2023-03-29T20:14:12.792Z,19.30
2023-03-29T20:16:42.540Z,19.30
2023-03-29T20:19:13.885Z,19.30
2023-03-29T20:21:41.776Z,19.30
2023-03-29T20:24:09.867Z,19.30
2023-03-29T20:26:38.056Z,19.20
2023-03-29T20:29:06.074Z,19.30
2023-03-29T20:31:34.014Z,19.30
2023-03-29T20:34:01.921Z,19.20
2023-03-29T20:36:31.875Z,19.20
2023-03-29T20:39:01.077Z,19.20
2023-03-29T20:41:28.958Z,19.20
2023-03-29T20:43:59.548Z,19.20
2023-03-29T20:46:33.247Z,19.20
2023-03-29T20:49:01.664Z,19.20
2023-03-29T20:51:31.821Z,19.20
2023-03-29T20:54:04.306Z,19.10
2023-03-29T20:56:34.237Z,19.00
2023-03-29T20:59:03.846Z,19.10
2023-03-29T21:01:31.732Z,19.20
2023-03-29T21:03:59.737Z,19.20
2023-03-29T21:06:27.954Z,19.20
2023-03-29T21:08:57.368Z,19.30
2023-03-29T21:11:25.220Z,19.20
2023-03-29T21:13:53.776Z,19.20
2023-03-29T21:16:21.961Z,19.20
2023-03-29T21:18:49.842Z,19.20
2023-03-29T21:21:17.928Z,19.10
2023-03-29T21:23:45.731Z,19.10
2023-03-29T21:26:15.079Z,19.10
2023-03-29T21:28:43.092Z,19.20
2023-03-29T21:31:11.097Z,19.20
2023-03-29T21:33:38.982Z,19.20
2023-03-29T21:36:08.109Z,19.20
2023-03-29T21:38:36.062Z,19.20
2023-03-29T21:41:04.055Z,19.10
2023-03-29T21:43:33.432Z,19.10
2023-03-29T21:46:01.216Z,19.10
2023-03-29T21:48:29.072Z,19.10
2023-03-29T21:50:56.866Z,19.20
2023-03-29T21:53:25.694Z,19.20
2023-03-29T21:55:53.560Z,19.20
2023-03-29T21:58:21.676Z,19.20
2023-03-29T22:00:51.340Z,19.20
2023-03-29T22:03:19.239Z,19.10
2023-03-29T22:05:56.906Z,19.10
2023-03-29T22:08:26.098Z,19.10
2023-03-29T22:10:57.708Z,19.00
2023-03-29T22:13:27.663Z,19.00
2023-03-29T22:15:58.432Z,19.00
2023-03-29T22:18:27.665Z,19.00
2023-03-29T22:20:55.526Z,19.10
2023-03-29T22:23:24.824Z,19.00
2023-03-29T22:25:52.738Z,19.00
2023-03-29T22:28:20.557Z,19.00
2023-03-29T22:30:48.368Z,19.00
2023-03-29T22:33:17.549Z,19.00
2023-03-29T22:35:45.488Z,19.00
2023-03-29T22:38:13.397Z,19.00
2023-03-29T22:40:41.403Z,19.00
2023-03-29T22:43:09.204Z,19.00
2023-03-29T22:45:37.357Z,19.00
2023-03-29T22:48:05.862Z,19.00
2023-03-29T22:50:35.063Z,19.00
2023-03-29T22:53:02.880Z,19.00
2023-03-29T22:55:30.710Z,18.90
2023-03-29T22:57:58.532Z,18.90
2023-03-29T23:00:26.350Z,18.90
2023-03-29T23:02:54.293Z,18.90
2023-03-29T23:05:22.241Z,18.90
2023-03-29T23:07:51.473Z,18.90
2023-03-29T23:10:19.486Z,18.90
2023-03-29T23:12:48.987Z,18.80
2023-03-29T23:15:17.080Z,18.80
2023-03-29T23:17:45.335Z,18.80
2023-03-29T23:20:13.776Z,18.80
2023-03-29T23:22:41.580Z,18.70
2023-03-29T23:25:11.856Z,19.00
2023-03-29T23:27:39.680Z,19.10
2023-03-29T23:30:09.473Z,19.10
2023-03-29T23:32:37.466Z,19.10
2023-03-29T23:35:06.008Z,19.20
2023-03-29T23:37:33.906Z,19.20
2023-03-29T23:40:01.728Z,19.20
2023-03-29T23:42:31.771Z,19.10
2023-03-29T23:45:00.042Z,19.10
2023-03-29T23:47:28.084Z,19.10
2023-03-29T23:49:55.899Z,19.10
2023-03-29T23:52:23.931Z,19.20
2023-03-29T23:54:52.415Z,19.20
2023-03-29T23:57:21.140Z,19.20
2023-03-29T23:59:52.569Z,19.20
